sensor_id;sensor_type;location;lat;lon;timestamp;pressure;altitude;pressure_sealevel;temperature;humidity
49583;BME280;36329;48.816;44.624;2023-01-31T08:10:09;100932;;;1.5;79.5
49583;BME280;36329;48.816;44.624;2023-01-31T08:13:12;100935;;;1.4;80.3
49583;BME280;36329;48.816;44.624;2023-01-31T08:16:14;100932;;;1.5;79.6
49583;BME280;36329;48.816;44.624;2023-01-31T08:22:47;100933;;;1.8;78.9
49583;BME280;36329;48.816;44.624;2023-01-31T08:33:33;100924;;;2.7;74
49583;BME280;36329;48.816;44.624;2023-01-31T08:36:37;100922;;;3.2;71.9
49583;BME280;36329;48.816;44.624;2023-01-31T08:39:39;100917;;;3.6;69.8
49583;BME280;36329;48.816;44.624;2023-01-31T08:42:53;100923;;;3.7;68.9
49583;BME280;36329;48.816;44.624;2023-01-31T08:46:12;100918;;;3.2;70.7
49583;BME280;36329;48.816;44.624;2023-01-31T08:49:32;100915;;;3.4;71.5
49583;BME280;36329;48.816;44.624;2023-01-31T08:52:40;100910;;;3.2;70.7
49583;BME280;36329;48.816;44.624;2023-01-31T08:55:43;100916;;;3;72
49583;BME280;36329;48.816;44.624;2023-01-31T08:59:02;100914;;;2.8;73.4
49583;BME280;36329;48.816;44.624;2023-01-31T09:02:10;100911;;;3.1;72.8
49583;BME280;36329;48.816;44.624;2023-01-31T09:05:18;100907;;;2.9;72.4
49583;BME280;36329;48.816;44.624;2023-01-31T09:08:22;100906;;;3;72.6
49583;BME280;36329;48.816;44.624;2023-01-31T09:11:29;100901;;;3;73.5
49583;BME280;36329;48.816;44.624;2023-01-31T09:14:32;100898;;;3.2;73.4
49583;BME280;36329;48.816;44.624;2023-01-31T09:17:35;100894;;;3.2;73.3
49583;BME280;36329;48.816;44.624;2023-01-31T09:20:37;100896;;;4;70.1
49583;BME280;36329;48.816;44.624;2023-01-31T09:23:40;100895;;;4.1;69.8
49583;BME280;36329;48.816;44.624;2023-01-31T09:26:42;100897;;;4.4;68
49583;BME280;36329;48.816;44.624;2023-01-31T09:29:51;100892;;;4.8;66.1
49583;BME280;36329;48.816;44.624;2023-01-31T09:33:08;100889;;;5.4;64.3
49583;BME280;36329;48.816;44.624;2023-01-31T09:36:23;100887;;;4.6;65.9
49583;BME280;36329;48.816;44.624;2023-01-31T09:39:33;100892;;;5.1;63.8
49583;BME280;36329;48.816;44.624;2023-01-31T09:42:38;100890;;;4.6;65.6
49583;BME280;36329;48.816;44.624;2023-01-31T09:46:08;100887;;;4.6;66.5
49583;BME280;36329;48.816;44.624;2023-01-31T09:49:23;100887;;;4;68.1
49583;BME280;36329;48.816;44.624;2023-01-31T09:52:33;100877;;;4.4;67.6
49583;BME280;36329;48.816;44.624;2023-01-31T09:55:41;100875;;;4.5;66.9
49583;BME280;36329;48.816;44.624;2023-01-31T09:59:00;100877;;;4.1;67.8
49583;BME280;36329;48.816;44.624;2023-01-31T10:02:25;100874;;;4.5;66.6
49583;BME280;36329;48.816;44.624;2023-01-31T10:05:39;100875;;;4.7;65.9
49583;BME280;36329;48.816;44.624;2023-01-31T10:08:58;100867;;;4.5;67.6
49583;BME280;36329;48.816;44.624;2023-01-31T10:12:12;100865;;;4.3;68.6
49583;BME280;36329;48.816;44.624;2023-01-31T10:15:28;100869;;;4.7;67.9
49583;BME280;36329;48.816;44.624;2023-01-31T10:18:44;100854;;;3.4;73.3
49583;BME280;36329;48.816;44.624;2023-01-31T10:21:52;100855;;;3;76.2
49583;BME280;36329;48.816;44.624;2023-01-31T10:25:24;100847;;;2.6;78.8
49583;BME280;36329;48.816;44.624;2023-01-31T10:28:34;100845;;;2.9;77.1
49583;BME280;36329;48.816;44.624;2023-01-31T10:31:48;100840;;;3.2;75.6
49583;BME280;36329;48.816;44.624;2023-01-31T10:35:11;100842;;;4.3;70.5
49583;BME280;36329;48.816;44.624;2023-01-31T10:38:27;100839;;;4.2;70.1
49583;BME280;36329;48.816;44.624;2023-01-31T10:41:40;100840;;;4;72.1
49583;BME280;36329;48.816;44.624;2023-01-31T10:44:51;100840;;;3.6;73.6
49583;BME280;36329;48.816;44.624;2023-01-31T10:48:09;100838;;;3.6;74.1
49583;BME280;36329;48.816;44.624;2023-01-31T10:51:34;100843;;;3.2;76.4
49583;BME280;36329;48.816;44.624;2023-01-31T10:54:52;100839;;;2.9;77.2
49583;BME280;36329;48.816;44.624;2023-01-31T10:58:01;100835;;;3.2;76.7
49583;BME280;36329;48.816;44.624;2023-01-31T11:01:09;100838;;;3.3;75.8
49583;BME280;36329;48.816;44.624;2023-01-31T11:04:22;100833;;;3.2;76.2
49583;BME280;36329;48.816;44.624;2023-01-31T11:07:28;100837;;;3;77.6
49583;BME280;36329;48.816;44.624;2023-01-31T11:10:31;100840;;;3;77.7
49583;BME280;36329;48.816;44.624;2023-01-31T11:14:01;100839;;;3;78
49583;BME280;36329;48.816;44.624;2023-01-31T11:17:07;100835;;;3;78.2
49583;BME280;36329;48.816;44.624;2023-01-31T11:20:36;100840;;;3.2;77.2
49583;BME280;36329;48.816;44.624;2023-01-31T11:24:01;100838;;;2.9;77.8
49583;BME280;36329;48.816;44.624;2023-01-31T11:27:21;100842;;;3;77.5
49583;BME280;36329;48.816;44.624;2023-01-31T11:30:35;100840;;;2.9;78
49583;BME280;36329;48.816;44.624;2023-01-31T11:33:54;100841;;;2.8;78
49583;BME280;36329;48.816;44.624;2023-01-31T11:37:05;100845;;;2.7;79
49583;BME280;36329;48.816;44.624;2023-01-31T11:40:18;100846;;;2.7;78.6
49583;BME280;36329;48.816;44.624;2023-01-31T11:43:33;100851;;;2.8;78
49583;BME280;36329;48.816;44.624;2023-01-31T11:46:42;100841;;;2.8;78.2
49583;BME280;36329;48.816;44.624;2023-01-31T11:49:52;100848;;;3.1;76.8
49583;BME280;36329;48.816;44.624;2023-01-31T11:52:58;100848;;;3;76.8
49583;BME280;36329;48.816;44.624;2023-01-31T11:56:11;100847;;;2.8;77.2
49583;BME280;36329;48.816;44.624;2023-01-31T11:59:18;100848;;;2.7;77.2
49583;BME280;36329;48.816;44.624;2023-01-31T12:02:29;100846;;;2.8;77.8
49583;BME280;36329;48.816;44.624;2023-01-31T12:05:48;100840;;;2.8;77.6
49583;BME280;36329;48.816;44.624;2023-01-31T12:08:58;100839;;;3;76.6
49583;BME280;36329;48.816;44.624;2023-01-31T12:12:22;100846;;;2.8;77.6
49583;BME280;36329;48.816;44.624;2023-01-31T12:15:36;100846;;;3.1;76.7
49583;BME280;36329;48.816;44.624;2023-01-31T12:18:55;100842;;;3;76.4
49583;BME280;36329;48.816;44.624;2023-01-31T12:22:08;100843;;;3.1;76.3
49583;BME280;36329;48.816;44.624;2023-01-31T12:25:20;100840;;;2.9;76.2
49583;BME280;36329;48.816;44.624;2023-01-31T12:28:50;100832;;;2.8;77.4
49583;BME280;36329;48.816;44.624;2023-01-31T12:32:14;100840;;;3.1;76.3
49583;BME280;36329;48.816;44.624;2023-01-31T12:35:37;100838;;;3.2;75.3
49583;BME280;36329;48.816;44.624;2023-01-31T12:39:02;100838;;;3.3;74.4
49583;BME280;36329;48.816;44.624;2023-01-31T12:42:25;100840;;;2.9;75.9
49583;BME280;36329;48.816;44.624;2023-01-31T12:45:55;100839;;;3.1;75.2
49583;BME280;36329;48.816;44.624;2023-01-31T12:49:18;100824;;;3.3;74.3
49583;BME280;36329;48.816;44.624;2023-01-31T12:52:47;100820;;;3.3;75.1
49583;BME280;36329;48.816;44.624;2023-01-31T12:56:04;100821;;;3.6;73
49583;BME280;36329;48.816;44.624;2023-01-31T12:59:22;100816;;;3.5;72.4
49583;BME280;36329;48.816;44.624;2023-01-31T13:02:36;100815;;;3.2;74.1
49583;BME280;36329;48.816;44.624;2023-01-31T13:05:52;100817;;;3.2;74.5
49583;BME280;36329;48.816;44.624;2023-01-31T13:09:01;100818;;;3.4;74
49583;BME280;36329;48.816;44.624;2023-01-31T13:12:22;100821;;;3.5;72.8
49583;BME280;36329;48.816;44.624;2023-01-31T13:15:42;100818;;;3.5;72.9
49583;BME280;36329;48.816;44.624;2023-01-31T13:19:02;100815;;;3.4;73.2
49583;BME280;36329;48.816;44.624;2023-01-31T13:22:28;100824;;;3.6;72.4
49583;BME280;36329;48.816;44.624;2023-01-31T13:25:42;100819;;;3.6;72.3
49583;BME280;36329;48.816;44.624;2023-01-31T13:29:05;100815;;;3.7;71.6
49583;BME280;36329;48.816;44.624;2023-01-31T13:32:34;100814;;;3.6;72.2
49583;BME280;36329;48.816;44.624;2023-01-31T13:35:49;100815;;;3.5;72.1
49583;BME280;36329;48.816;44.624;2023-01-31T13:38:57;100815;;;3.5;72.2
49583;BME280;36329;48.816;44.624;2023-01-31T13:42:15;100817;;;3.3;73.3
49583;BME280;36329;48.816;44.624;2023-01-31T13:45:26;100821;;;3.5;72.9
49583;BME280;36329;48.816;44.624;2023-01-31T13:48:37;100817;;;3.5;72.3
49583;BME280;36329;48.816;44.624;2023-01-31T13:51:54;100814;;;3.5;72.3
49583;BME280;36329;48.816;44.624;2023-01-31T13:55:12;100823;;;3.5;72.1
49583;BME280;36329;48.816;44.624;2023-01-31T13:58:30;100819;;;3.4;72.7
49583;BME280;36329;48.816;44.624;2023-01-31T14:01:46;100821;;;3.2;73.3
49583;BME280;36329;48.816;44.624;2023-01-31T14:04:51;100819;;;3.2;73.7
49583;BME280;36329;48.816;44.624;2023-01-31T14:11:42;100821;;;3.2;73.3
49583;BME280;36329;48.816;44.624;2023-01-31T14:14:52;100824;;;3.2;73.3
49583;BME280;36329;48.816;44.624;2023-01-31T14:18:02;100827;;;3.2;73.1
49583;BME280;36329;48.816;44.624;2023-01-31T14:21:42;100825;;;3.1;73.7
49583;BME280;36329;48.816;44.624;2023-01-31T14:24:56;100831;;;2.9;74.5
49583;BME280;36329;48.816;44.624;2023-01-31T14:28:01;100834;;;2.7;75.7
49583;BME280;36329;48.816;44.624;2023-01-31T14:31:13;100838;;;2.6;76.2
49583;BME280;36329;48.816;44.624;2023-01-31T14:34:17;100842;;;2.6;75.4
49583;BME280;36329;48.816;44.624;2023-01-31T14:37:34;100841;;;2.5;74.1
49583;BME280;36329;48.816;44.624;2023-01-31T14:40:45;100845;;;2.6;72.8
49583;BME280;36329;48.816;44.624;2023-01-31T14:44:03;100849;;;2.1;72.9
49583;BME280;36329;48.816;44.624;2023-01-31T14:47:25;100847;;;2.5;72
49583;BME280;36329;48.816;44.624;2023-01-31T14:50:46;100850;;;2.4;71.3
49583;BME280;36329;48.816;44.624;2023-01-31T14:54:23;100847;;;2.3;70.3
49583;BME280;36329;48.816;44.624;2023-01-31T14:57:31;100846;;;2.3;69.3
49583;BME280;36329;48.816;44.624;2023-01-31T15:00:49;100844;;;2.2;68.8
49583;BME280;36329;48.816;44.624;2023-01-31T15:03:56;100844;;;2;69.7
49583;BME280;36329;48.816;44.624;2023-01-31T15:07:20;100850;;;1.7;70.2
49583;BME280;36329;48.816;44.624;2023-01-31T15:14:00;100854;;;2.1;69.6
49583;BME280;36329;48.816;44.624;2023-01-31T15:17:13;100849;;;2.1;69.5
49583;BME280;36329;48.816;44.624;2023-01-31T15:20:39;100847;;;2.3;68.8
49583;BME280;36329;48.816;44.624;2023-01-31T15:23:49;100848;;;2;69.7
49583;BME280;36329;48.816;44.624;2023-01-31T15:27:00;100851;;;1.9;70
49583;BME280;36329;48.816;44.624;2023-01-31T15:30:21;100853;;;1.7;70.9
49583;BME280;36329;48.816;44.624;2023-01-31T15:33:47;100859;;;1.7;70.6
49583;BME280;36329;48.816;44.624;2023-01-31T15:37:07;100863;;;1.6;70.4
49583;BME280;36329;48.816;44.624;2023-01-31T15:40:21;100864;;;1.4;69.4
49583;BME280;36329;48.816;44.624;2023-01-31T15:43:31;100865;;;1.8;67.9
49583;BME280;36329;48.816;44.624;2023-01-31T15:46:34;100873;;;1.1;68
49583;BME280;36329;48.816;44.624;2023-01-31T15:49:44;100873;;;1;67.3
49583;BME280;36329;48.816;44.624;2023-01-31T15:52:56;100883;;;0.8;68.1
49583;BME280;36329;48.816;44.624;2023-01-31T15:56:01;100880;;;0.9;66.2
49583;BME280;36329;48.816;44.624;2023-01-31T15:59:09;100877;;;1;66.1
49583;BME280;36329;48.816;44.624;2023-01-31T16:02:39;100875;;;1.1;65.8
49583;BME280;36329;48.816;44.624;2023-01-31T16:05:51;100885;;;1.2;64
49583;BME280;36329;48.816;44.624;2023-01-31T16:09:02;100881;;;1;63.4
49583;BME280;36329;48.816;44.624;2023-01-31T16:12:22;100882;;;0.8;64.6
49583;BME280;36329;48.816;44.624;2023-01-31T16:15:44;100876;;;0.6;63.6
49583;BME280;36329;48.816;44.624;2023-01-31T16:18:58;100876;;;0.7;62.7
49583;BME280;36329;48.816;44.624;2023-01-31T16:22:26;100864;;;1;64.6
49583;BME280;36329;48.816;44.624;2023-01-31T16:25:36;100858;;;1.1;61.1
49583;BME280;36329;48.816;44.624;2023-01-31T16:28:40;100860;;;0.9;61
49583;BME280;36329;48.816;44.624;2023-01-31T16:31:53;100857;;;0.8;60.4
49583;BME280;36329;48.816;44.624;2023-01-31T16:35:19;100865;;;0.6;61.6
49583;BME280;36329;48.816;44.624;2023-01-31T16:38:40;100866;;;0.8;60.7
49583;BME280;36329;48.816;44.624;2023-01-31T16:41:59;100860;;;0.8;59.9
49583;BME280;36329;48.816;44.624;2023-01-31T16:45:32;100866;;;0.5;60.4
49583;BME280;36329;48.816;44.624;2023-01-31T16:49:02;100862;;;0.9;59.7
49583;BME280;36329;48.816;44.624;2023-01-31T16:52:15;100866;;;0.7;58.7
49583;BME280;36329;48.816;44.624;2023-01-31T16:55:25;100870;;;0.7;58.6
49583;BME280;36329;48.816;44.624;2023-01-31T16:58:43;100866;;;0.8;58.2
49583;BME280;36329;48.816;44.624;2023-01-31T17:02:11;100864;;;1;58.1
49583;BME280;36329;48.816;44.624;2023-01-31T17:05:26;100878;;;0.9;57.8
49583;BME280;36329;48.816;44.624;2023-01-31T17:08:41;100886;;;0.8;57.4
49583;BME280;36329;48.816;44.624;2023-01-31T17:11:54;100884;;;0.5;59.2
49583;BME280;36329;48.816;44.624;2023-01-31T17:15:14;100886;;;0.5;59.5
49583;BME280;36329;48.816;44.624;2023-01-31T17:18:22;100880;;;0.5;59.7
49583;BME280;36329;48.816;44.624;2023-01-31T17:21:25;100881;;;0.5;60.8
49583;BME280;36329;48.816;44.624;2023-01-31T17:24:39;100889;;;0.6;60.8
49583;BME280;36329;48.816;44.624;2023-01-31T17:27:52;100897;;;0.5;61
49583;BME280;36329;48.816;44.624;2023-01-31T17:31:01;100898;;;0.4;61.5
49583;BME280;36329;48.816;44.624;2023-01-31T17:34:31;100891;;;0.2;62.9
49583;BME280;36329;48.816;44.624;2023-01-31T17:37:40;100892;;;0.2;63.1
49583;BME280;36329;48.816;44.624;2023-01-31T17:40:52;100897;;;0.2;63.3
49583;BME280;36329;48.816;44.624;2023-01-31T17:44:08;100891;;;0.3;63.4
49583;BME280;36329;48.816;44.624;2023-01-31T17:47:38;100898;;;0.6;63.1
49583;BME280;36329;48.816;44.624;2023-01-31T17:50:47;100902;;;0.5;63.2
49583;BME280;36329;48.816;44.624;2023-01-31T17:54:02;100902;;;0.4;64
49583;BME280;36329;48.816;44.624;2023-01-31T17:57:16;100895;;;0.2;64.7
49583;BME280;36329;48.816;44.624;2023-01-31T18:00:37;100894;;;0.6;63.6
49583;BME280;36329;48.816;44.624;2023-01-31T18:03:50;100895;;;0.7;63.5
49583;BME280;36329;48.816;44.624;2023-01-31T18:06:54;100889;;;0.8;63.2
49583;BME280;36329;48.816;44.624;2023-01-31T18:10:01;100895;;;0.8;63.3
49583;BME280;36329;48.816;44.624;2023-01-31T18:13:11;100894;;;0.4;64.6
49583;BME280;36329;48.816;44.624;2023-01-31T18:16:22;100896;;;0.3;65.8
49583;BME280;36329;48.816;44.624;2023-01-31T18:19:26;100893;;;0.7;64.7
49583;BME280;36329;48.816;44.624;2023-01-31T18:22:35;100893;;;0.2;65
49583;BME280;36329;48.816;44.624;2023-01-31T18:25:47;100892;;;0.2;65.5
49583;BME280;36329;48.816;44.624;2023-01-31T18:28:50;100897;;;0.1;66.1
49583;BME280;36329;48.816;44.624;2023-01-31T18:31:53;100898;;;0.1;66.3
49583;BME280;36329;48.816;44.624;2023-01-31T18:35:01;100898;;;0.3;65.8
49583;BME280;36329;48.816;44.624;2023-01-31T18:38:08;100897;;;0.4;65.7
49583;BME280;36329;48.816;44.624;2023-01-31T18:41:12;100894;;;0.3;65.7
49583;BME280;36329;48.816;44.624;2023-01-31T18:44:14;100898;;;0.3;66
49583;BME280;36329;48.816;44.624;2023-01-31T18:47:22;100897;;;0.2;65.3
49583;BME280;36329;48.816;44.624;2023-01-31T18:50:36;100897;;;0.5;65.1
49583;BME280;36329;48.816;44.624;2023-01-31T18:53:41;100897;;;0;66
49583;BME280;36329;48.816;44.624;2023-01-31T18:56:52;100893;;;-0.1;67.1
49583;BME280;36329;48.816;44.624;2023-01-31T19:00:00;100887;;;-0.3;67.5
49583;BME280;36329;48.816;44.624;2023-01-31T19:03:25;100883;;;-0.1;66.6
49583;BME280;36329;48.816;44.624;2023-01-31T19:06:35;100888;;;-0.2;66.1
49583;BME280;36329;48.816;44.624;2023-01-31T19:09:39;100880;;;-0.4;67.3
49583;BME280;36329;48.816;44.624;2023-01-31T19:12:52;100872;;;-0.1;66.3
49583;BME280;36329;48.816;44.624;2023-01-31T19:16:11;100871;;;0;65.2
49583;BME280;36329;48.816;44.624;2023-01-31T19:19:25;100874;;;-0.2;64.4
49583;BME280;36329;48.816;44.624;2023-01-31T19:22:28;100870;;;-0.4;65.7
49583;BME280;36329;48.816;44.624;2023-01-31T19:25:36;100867;;;-0.4;66.1
49583;BME280;36329;48.816;44.624;2023-01-31T19:28:42;100868;;;-0.3;66.1
49583;BME280;36329;48.816;44.624;2023-01-31T19:32:06;100862;;;0;65.5
49583;BME280;36329;48.816;44.624;2023-01-31T19:35:12;100860;;;-0.2;66.6
49583;BME280;36329;48.816;44.624;2023-01-31T19:38:18;100861;;;-0.1;66.8
49583;BME280;36329;48.816;44.624;2023-01-31T19:41:26;100864;;;-0.1;66.7
49583;BME280;36329;48.816;44.624;2023-01-31T19:44:41;100862;;;0.1;66.1
49583;BME280;36329;48.816;44.624;2023-01-31T19:47:43;100862;;;-0.1;66.4
49583;BME280;36329;48.816;44.624;2023-01-31T19:50:50;100861;;;-0.3;66.4
49583;BME280;36329;48.816;44.624;2023-01-31T19:54:12;100856;;;-0.1;66.8
49583;BME280;36329;48.816;44.624;2023-01-31T19:57:19;100854;;;-0.1;66.1
49583;BME280;36329;48.816;44.624;2023-01-31T20:00:32;100858;;;-0.2;66.2
49583;BME280;36329;48.816;44.624;2023-01-31T20:03:46;100861;;;-0.1;65.6
49583;BME280;36329;48.816;44.624;2023-01-31T20:06:51;100859;;;-0.2;65.7
49583;BME280;36329;48.816;44.624;2023-01-31T20:09:53;100859;;;0.1;64.9
49583;BME280;36329;48.816;44.624;2023-01-31T20:12:56;100849;;;-0.3;65.2
49583;BME280;36329;48.816;44.624;2023-01-31T20:16:06;100855;;;-0.1;64.7
49583;BME280;36329;48.816;44.624;2023-01-31T20:19:12;100850;;;-0.2;65.5
49583;BME280;36329;48.816;44.624;2023-01-31T20:22:24;100846;;;-0.3;65.9
49583;BME280;36329;48.816;44.624;2023-01-31T20:25:27;100851;;;-0.2;65.5
49583;BME280;36329;48.816;44.624;2023-01-31T20:28:35;100847;;;0;65.1
49583;BME280;36329;48.816;44.624;2023-01-31T20:31:44;100848;;;-0.1;65.2
49583;BME280;36329;48.816;44.624;2023-01-31T20:34:48;100854;;;0;65
49583;BME280;36329;48.816;44.624;2023-01-31T20:37:57;100855;;;-0.1;65.3
49583;BME280;36329;48.816;44.624;2023-01-31T20:41:04;100849;;;-0.1;65.2
49583;BME280;36329;48.816;44.624;2023-01-31T20:44:08;100854;;;0;65.3
49583;BME280;36329;48.816;44.624;2023-01-31T20:47:17;100850;;;-0.1;65.2
49583;BME280;36329;48.816;44.624;2023-01-31T20:50:20;100851;;;-0.2;65.6
49583;BME280;36329;48.816;44.624;2023-01-31T20:53:24;100852;;;-0.3;65.8
49583;BME280;36329;48.816;44.624;2023-01-31T20:56:29;100851;;;-0.3;65.9
49583;BME280;36329;48.816;44.624;2023-01-31T20:59:38;100850;;;-0.2;65.3
49583;BME280;36329;48.816;44.624;2023-01-31T21:02:41;100846;;;-0.2;65.1
49583;BME280;36329;48.816;44.624;2023-01-31T21:05:43;100842;;;-0.2;65.5
49583;BME280;36329;48.816;44.624;2023-01-31T21:08:45;100832;;;-0.2;65.2
49583;BME280;36329;48.816;44.624;2023-01-31T21:11:54;100828;;;-0.4;66.8
49583;BME280;36329;48.816;44.624;2023-01-31T21:14:57;100831;;;-0.7;67.8
49583;BME280;36329;48.816;44.624;2023-01-31T21:18:04;100830;;;-0.6;67.4
49583;BME280;36329;48.816;44.624;2023-01-31T21:21:12;100830;;;-1.1;69
49583;BME280;36329;48.816;44.624;2023-01-31T21:24:21;100829;;;-1.4;69.8
49583;BME280;36329;48.816;44.624;2023-01-31T21:27:34;100828;;;-1.5;70.4
49583;BME280;36329;48.816;44.624;2023-01-31T21:30:41;100818;;;-1.7;70.7
49583;BME280;36329;48.816;44.624;2023-01-31T21:33:43;100822;;;-1.8;71.8
49583;BME280;36329;48.816;44.624;2023-01-31T21:36:46;100817;;;-1.6;71.6
49583;BME280;36329;48.816;44.624;2023-01-31T21:39:54;100819;;;-1.8;71.6
49583;BME280;36329;48.816;44.624;2023-01-31T21:42:57;100820;;;-1.9;71.5
49583;BME280;36329;48.816;44.624;2023-01-31T21:46:00;100819;;;-1.8;71.7
49583;BME280;36329;48.816;44.624;2023-01-31T21:49:02;100823;;;-1.9;72
49583;BME280;36329;48.816;44.624;2023-01-31T21:52:05;100815;;;-1.8;71.1
49583;BME280;36329;48.816;44.624;2023-01-31T21:55:08;100823;;;-1.6;69.9
49583;BME280;36329;48.816;44.624;2023-01-31T21:58:10;100819;;;-1.7;70
49583;BME280;36329;48.816;44.624;2023-01-31T22:01:16;100820;;;-1.7;70.1
49583;BME280;36329;48.816;44.624;2023-01-31T22:04:24;100829;;;-1.6;69.7
49583;BME280;36329;48.816;44.624;2023-01-31T22:07:36;100823;;;-1.7;70.1
49583;BME280;36329;48.816;44.624;2023-01-31T22:10:39;100818;;;-1.6;69.3
49583;BME280;36329;48.816;44.624;2023-01-31T22:13:42;100813;;;-1.9;69.8
49583;BME280;36329;48.816;44.624;2023-01-31T22:16:45;100821;;;-2;70.9
49583;BME280;36329;48.816;44.624;2023-01-31T22:19:47;100823;;;-2;70.7
49583;BME280;36329;48.816;44.624;2023-01-31T22:22:49;100826;;;-1.9;70.3
49583;BME280;36329;48.816;44.624;2023-01-31T22:25:51;100826;;;-2;70
49583;BME280;36329;48.816;44.624;2023-01-31T22:28:55;100830;;;-1.9;69.7
49583;BME280;36329;48.816;44.624;2023-01-31T22:31:57;100834;;;-2.3;70.2
49583;BME280;36329;48.816;44.624;2023-01-31T22:35:00;100821;;;-2.5;71.3
49583;BME280;36329;48.816;44.624;2023-01-31T22:38:02;100825;;;-2.7;72.3
49583;BME280;36329;48.816;44.624;2023-01-31T22:41:06;100817;;;-2.3;71.5
49583;BME280;36329;48.816;44.624;2023-01-31T22:44:08;100811;;;-2.5;71.2
49583;BME280;36329;48.816;44.624;2023-01-31T22:47:11;100819;;;-2.5;71.3
49583;BME280;36329;48.816;44.624;2023-01-31T22:50:19;100825;;;-2.5;70.7
49583;BME280;36329;48.816;44.624;2023-01-31T22:53:21;100828;;;-2.6;71.1
49583;BME280;36329;48.816;44.624;2023-01-31T22:56:25;100820;;;-2.9;72.8
49583;BME280;36329;48.816;44.624;2023-01-31T22:59:27;100820;;;-2.7;72.5
49583;BME280;36329;48.816;44.624;2023-01-31T23:02:30;100823;;;-2.4;71.5
49583;BME280;36329;48.816;44.624;2023-01-31T23:05:33;100823;;;-2.4;71
49583;BME280;36329;48.816;44.624;2023-01-31T23:08:35;100820;;;-2.3;70.6
49583;BME280;36329;48.816;44.624;2023-01-31T23:11:38;100830;;;-2.1;69.6
49583;BME280;36329;48.816;44.624;2023-01-31T23:14:40;100829;;;-2.3;70.1
49583;BME280;36329;48.816;44.624;2023-01-31T23:17:42;100835;;;-2.3;69.6
49583;BME280;36329;48.816;44.624;2023-01-31T23:20:44;100836;;;-2.3;69.6
49583;BME280;36329;48.816;44.624;2023-01-31T23:23:46;100833;;;-2.1;69.2
49583;BME280;36329;48.816;44.624;2023-01-31T23:26:54;100836;;;-2.3;68.9
49583;BME280;36329;48.816;44.624;2023-01-31T23:29:56;100830;;;-2.5;70.5
49583;BME280;36329;48.816;44.624;2023-01-31T23:32:58;100832;;;-2.5;70.4
49583;BME280;36329;48.816;44.624;2023-01-31T23:36:00;100831;;;-2.7;70.4
49583;BME280;36329;48.816;44.624;2023-01-31T23:39:04;100834;;;-2.8;70.9
49583;BME280;36329;48.816;44.624;2023-01-31T23:42:06;100836;;;-3;72.1
49583;BME280;36329;48.816;44.624;2023-01-31T23:45:08;100822;;;-3;71.8
49583;BME280;36329;48.816;44.624;2023-01-31T23:48:10;100820;;;-3.3;73.1
49583;BME280;36329;48.816;44.624;2023-01-31T23:51:12;100819;;;-3.4;74.7
49583;BME280;36329;48.816;44.624;2023-01-31T23:54:14;100816;;;-3.6;75.6
49583;BME280;36329;48.816;44.624;2023-01-31T23:57:16;100818;;;-3.3;75
